sensor_id;sensor_type;location;lat;lon;timestamp;P1;durP1;ratioP1;P2;durP2;ratioP2
10823;SDS011;39116;59.332;18.034;2023-01-01T00:00:58;14.13;;;6.07;;
10823;SDS011;39116;59.332;18.034;2023-01-01T00:03:20;13.77;;;5.80;;
10823;SDS011;39116;59.332;18.034;2023-01-01T00:05:41;15.25;;;5.05;;
10823;SDS011;39116;59.332;18.034;2023-01-01T00:08:05;13.93;;;5.10;;
10823;SDS011;39116;59.332;18.034;2023-01-01T00:10:26;13.10;;;5.80;;
10823;SDS011;39116;59.332;18.034;2023-01-01T00:12:50;16.88;;;4.88;;
10823;SDS011;39116;59.332;18.034;2023-01-01T00:15:11;11.95;;;4.60;;
10823;SDS011;39116;59.332;18.034;2023-01-01T00:17:33;13.18;;;4.40;;
10823;SDS011;39116;59.332;18.034;2023-01-01T00:19:55;10.68;;;3.63;;
10823;SDS011;39116;59.332;18.034;2023-01-01T00:22:16;10.98;;;4.10;;
10823;SDS011;39116;59.332;18.034;2023-01-01T00:24:39;10.00;;;4.13;;
10823;SDS011;39116;59.332;18.034;2023-01-01T00:27:01;9.73;;;3.83;;
10823;SDS011;39116;59.332;18.034;2023-01-01T00:29:23;15.40;;;4.25;;
10823;SDS011;39116;59.332;18.034;2023-01-01T00:31:44;10.15;;;2.90;;
10823;SDS011;39116;59.332;18.034;2023-01-01T00:34:08;11.55;;;3.92;;
10823;SDS011;39116;59.332;18.034;2023-01-01T00:36:30;9.43;;;3.17;;
10823;SDS011;39116;59.332;18.034;2023-01-01T00:38:52;10.70;;;3.38;;
10823;SDS011;39116;59.332;18.034;2023-01-01T00:41:15;14.85;;;3.88;;
10823;SDS011;39116;59.332;18.034;2023-01-01T00:43:37;12.80;;;3.30;;
10823;SDS011;39116;59.332;18.034;2023-01-01T00:45:58;8.82;;;3.20;;
10823;SDS011;39116;59.332;18.034;2023-01-01T00:48:20;9.48;;;3.15;;
10823;SDS011;39116;59.332;18.034;2023-01-01T00:50:41;12.88;;;3.63;;
10823;SDS011;39116;59.332;18.034;2023-01-01T00:53:03;9.93;;;3.00;;
10823;SDS011;39116;59.332;18.034;2023-01-01T00:55:25;11.80;;;3.03;;
10823;SDS011;39116;59.332;18.034;2023-01-01T00:57:48;13.18;;;3.47;;
10823;SDS011;39116;59.332;18.034;2023-01-01T01:00:10;15.60;;;3.05;;
10823;SDS011;39116;59.332;18.034;2023-01-01T01:02:32;10.25;;;3.30;;
10823;SDS011;39116;59.332;18.034;2023-01-01T01:04:53;8.57;;;3.13;;
10823;SDS011;39116;59.332;18.034;2023-01-01T01:07:15;9.93;;;3.28;;
10823;SDS011;39116;59.332;18.034;2023-01-01T01:09:36;13.30;;;3.75;;
10823;SDS011;39116;59.332;18.034;2023-01-01T01:11:58;12.52;;;3.10;;
10823;SDS011;39116;59.332;18.034;2023-01-01T01:14:22;9.82;;;3.22;;
10823;SDS011;39116;59.332;18.034;2023-01-01T01:16:43;9.40;;;2.90;;
10823;SDS011;39116;59.332;18.034;2023-01-01T01:19:05;12.40;;;3.05;;
10823;SDS011;39116;59.332;18.034;2023-01-01T01:21:30;9.73;;;2.72;;
10823;SDS011;39116;59.332;18.034;2023-01-01T01:23:52;8.77;;;3.22;;
10823;SDS011;39116;59.332;18.034;2023-01-01T01:26:14;9.15;;;2.70;;
10823;SDS011;39116;59.332;18.034;2023-01-01T01:28:36;10.73;;;3.13;;
10823;SDS011;39116;59.332;18.034;2023-01-01T01:31:00;11.27;;;3.00;;
10823;SDS011;39116;59.332;18.034;2023-01-01T01:33:21;11.85;;;3.80;;
10823;SDS011;39116;59.332;18.034;2023-01-01T01:35:48;8.52;;;3.30;;
10823;SDS011;39116;59.332;18.034;2023-01-01T01:38:10;7.60;;;2.70;;
10823;SDS011;39116;59.332;18.034;2023-01-01T01:40:32;12.00;;;3.38;;
10823;SDS011;39116;59.332;18.034;2023-01-01T01:42:53;10.27;;;3.08;;
10823;SDS011;39116;59.332;18.034;2023-01-01T01:45:15;13.00;;;2.92;;
10823;SDS011;39116;59.332;18.034;2023-01-01T01:47:39;11.73;;;3.87;;
10823;SDS011;39116;59.332;18.034;2023-01-01T01:50:04;13.02;;;3.40;;
10823;SDS011;39116;59.332;18.034;2023-01-01T01:52:27;9.52;;;3.20;;
10823;SDS011;39116;59.332;18.034;2023-01-01T01:54:50;12.00;;;3.70;;
10823;SDS011;39116;59.332;18.034;2023-01-01T01:57:12;11.80;;;3.58;;
10823;SDS011;39116;59.332;18.034;2023-01-01T01:59:34;6.82;;;3.17;;
10823;SDS011;39116;59.332;18.034;2023-01-01T02:01:56;10.25;;;3.55;;
10823;SDS011;39116;59.332;18.034;2023-01-01T02:04:20;9.55;;;3.50;;
10823;SDS011;39116;59.332;18.034;2023-01-01T02:06:41;10.75;;;3.75;;
10823;SDS011;39116;59.332;18.034;2023-01-01T02:09:03;14.00;;;3.70;;
10823;SDS011;39116;59.332;18.034;2023-01-01T02:11:25;8.68;;;2.88;;
10823;SDS011;39116;59.332;18.034;2023-01-01T02:13:47;9.77;;;3.28;;
10823;SDS011;39116;59.332;18.034;2023-01-01T02:16:10;13.07;;;3.67;;
10823;SDS011;39116;59.332;18.034;2023-01-01T02:18:35;11.65;;;3.15;;
10823;SDS011;39116;59.332;18.034;2023-01-01T02:21:02;8.30;;;3.35;;
10823;SDS011;39116;59.332;18.034;2023-01-01T02:28:49;10.52;;;3.38;;
10823;SDS011;39116;59.332;18.034;2023-01-01T02:31:13;9.43;;;3.40;;
10823;SDS011;39116;59.332;18.034;2023-01-01T02:33:37;11.23;;;2.97;;
10823;SDS011;39116;59.332;18.034;2023-01-01T02:35:59;9.43;;;3.08;;
10823;SDS011;39116;59.332;18.034;2023-01-01T02:38:23;8.82;;;3.10;;
10823;SDS011;39116;59.332;18.034;2023-01-01T02:40:46;11.02;;;3.05;;
10823;SDS011;39116;59.332;18.034;2023-01-01T02:43:09;9.50;;;3.00;;
10823;SDS011;39116;59.332;18.034;2023-01-01T02:45:32;9.98;;;3.10;;
10823;SDS011;39116;59.332;18.034;2023-01-01T02:47:54;7.40;;;3.13;;
10823;SDS011;39116;59.332;18.034;2023-01-01T02:50:16;10.47;;;2.70;;
10823;SDS011;39116;59.332;18.034;2023-01-01T02:52:48;10.30;;;3.07;;
10823;SDS011;39116;59.332;18.034;2023-01-01T02:55:14;10.38;;;3.60;;
10823;SDS011;39116;59.332;18.034;2023-01-01T02:57:37;10.38;;;3.13;;
10823;SDS011;39116;59.332;18.034;2023-01-01T03:00:02;11.40;;;3.28;;
10823;SDS011;39116;59.332;18.034;2023-01-01T03:02:52;10.20;;;3.42;;
10823;SDS011;39116;59.332;18.034;2023-01-01T03:05:16;11.47;;;3.63;;
10823;SDS011;39116;59.332;18.034;2023-01-01T03:07:40;9.32;;;3.30;;
10823;SDS011;39116;59.332;18.034;2023-01-01T03:10:08;12.00;;;3.25;;
10823;SDS011;39116;59.332;18.034;2023-01-01T03:12:35;10.10;;;3.07;;
10823;SDS011;39116;59.332;18.034;2023-01-01T03:15:03;7.50;;;2.90;;
10823;SDS011;39116;59.332;18.034;2023-01-01T03:17:27;10.38;;;3.22;;
10823;SDS011;39116;59.332;18.034;2023-01-01T03:19:51;10.15;;;3.78;;
10823;SDS011;39116;59.332;18.034;2023-01-01T03:22:15;10.53;;;3.73;;
10823;SDS011;39116;59.332;18.034;2023-01-01T03:24:37;12.15;;;3.15;;
10823;SDS011;39116;59.332;18.034;2023-01-01T03:27:01;9.95;;;3.67;;
10823;SDS011;39116;59.332;18.034;2023-01-01T03:29:25;8.50;;;3.00;;
10823;SDS011;39116;59.332;18.034;2023-01-01T03:31:47;10.10;;;3.37;;
10823;SDS011;39116;59.332;18.034;2023-01-01T03:34:13;11.20;;;3.30;;
10823;SDS011;39116;59.332;18.034;2023-01-01T03:36:39;9.43;;;3.20;;
10823;SDS011;39116;59.332;18.034;2023-01-01T03:39:03;12.90;;;3.27;;
10823;SDS011;39116;59.332;18.034;2023-01-01T03:41:26;9.67;;;3.37;;
10823;SDS011;39116;59.332;18.034;2023-01-01T03:43:50;11.57;;;3.17;;
10823;SDS011;39116;59.332;18.034;2023-01-01T03:46:14;7.03;;;3.00;;
10823;SDS011;39116;59.332;18.034;2023-01-01T03:48:37;11.88;;;3.35;;
10823;SDS011;39116;59.332;18.034;2023-01-01T03:51:14;8.93;;;2.90;;
10823;SDS011;39116;59.332;18.034;2023-01-01T03:53:38;7.80;;;3.13;;
10823;SDS011;39116;59.332;18.034;2023-01-01T03:56:06;11.40;;;3.40;;
10823;SDS011;39116;59.332;18.034;2023-01-01T03:58:33;10.50;;;3.15;;
10823;SDS011;39116;59.332;18.034;2023-01-01T04:00:56;9.93;;;3.00;;
10823;SDS011;39116;59.332;18.034;2023-01-01T04:03:22;8.82;;;2.72;;
10823;SDS011;39116;59.332;18.034;2023-01-01T04:05:44;9.45;;;2.78;;
10823;SDS011;39116;59.332;18.034;2023-01-01T04:08:06;7.63;;;3.40;;
10823;SDS011;39116;59.332;18.034;2023-01-01T04:10:29;6.55;;;2.88;;
10823;SDS011;39116;59.332;18.034;2023-01-01T04:12:52;12.27;;;3.47;;
10823;SDS011;39116;59.332;18.034;2023-01-01T04:15:14;10.47;;;2.87;;
10823;SDS011;39116;59.332;18.034;2023-01-01T04:17:36;10.80;;;3.00;;
10823;SDS011;39116;59.332;18.034;2023-01-01T04:19:57;9.82;;;2.90;;
10823;SDS011;39116;59.332;18.034;2023-01-01T04:22:19;7.77;;;2.80;;
10823;SDS011;39116;59.332;18.034;2023-01-01T04:24:42;8.63;;;3.15;;
10823;SDS011;39116;59.332;18.034;2023-01-01T04:27:05;9.13;;;3.03;;
10823;SDS011;39116;59.332;18.034;2023-01-01T04:29:26;9.33;;;3.40;;
10823;SDS011;39116;59.332;18.034;2023-01-01T04:31:48;10.77;;;3.07;;
10823;SDS011;39116;59.332;18.034;2023-01-01T04:34:10;7.57;;;2.42;;
10823;SDS011;39116;59.332;18.034;2023-01-01T04:36:32;12.32;;;3.10;;
10823;SDS011;39116;59.332;18.034;2023-01-01T04:38:53;7.50;;;3.08;;
10823;SDS011;39116;59.332;18.034;2023-01-01T04:41:15;8.27;;;3.27;;
10823;SDS011;39116;59.332;18.034;2023-01-01T04:43:38;9.33;;;3.00;;
10823;SDS011;39116;59.332;18.034;2023-01-01T04:46:00;11.05;;;3.40;;
10823;SDS011;39116;59.332;18.034;2023-01-01T04:48:22;8.03;;;2.93;;
10823;SDS011;39116;59.332;18.034;2023-01-01T04:50:45;11.40;;;3.03;;
10823;SDS011;39116;59.332;18.034;2023-01-01T04:53:13;11.03;;;3.80;;
10823;SDS011;39116;59.332;18.034;2023-01-01T04:55:35;9.97;;;3.20;;
10823;SDS011;39116;59.332;18.034;2023-01-01T04:57:57;10.07;;;3.00;;
10823;SDS011;39116;59.332;18.034;2023-01-01T05:00:20;6.57;;;2.67;;
10823;SDS011;39116;59.332;18.034;2023-01-01T05:02:42;10.03;;;3.33;;
10823;SDS011;39116;59.332;18.034;2023-01-01T05:05:03;9.73;;;3.37;;
10823;SDS011;39116;59.332;18.034;2023-01-01T05:07:25;7.90;;;3.00;;
10823;SDS011;39116;59.332;18.034;2023-01-01T05:09:47;11.97;;;3.30;;
10823;SDS011;39116;59.332;18.034;2023-01-01T05:12:08;9.60;;;3.20;;
10823;SDS011;39116;59.332;18.034;2023-01-01T05:14:30;10.00;;;3.60;;
10823;SDS011;39116;59.332;18.034;2023-01-01T05:16:53;10.17;;;3.33;;
10823;SDS011;39116;59.332;18.034;2023-01-01T05:19:15;7.03;;;2.97;;
10823;SDS011;39116;59.332;18.034;2023-01-01T05:21:37;9.07;;;3.40;;
10823;SDS011;39116;59.332;18.034;2023-01-01T05:24:00;7.33;;;3.37;;
10823;SDS011;39116;59.332;18.034;2023-01-01T05:26:22;7.38;;;3.25;;
10823;SDS011;39116;59.332;18.034;2023-01-01T05:28:45;8.10;;;3.57;;
10823;SDS011;39116;59.332;18.034;2023-01-01T05:31:07;9.93;;;3.30;;
10823;SDS011;39116;59.332;18.034;2023-01-01T05:33:31;10.70;;;3.13;;
10823;SDS011;39116;59.332;18.034;2023-01-01T05:35:53;7.97;;;2.90;;
10823;SDS011;39116;59.332;18.034;2023-01-01T05:38:14;6.77;;;3.60;;
10823;SDS011;39116;59.332;18.034;2023-01-01T05:40:37;8.13;;;3.47;;
10823;SDS011;39116;59.332;18.034;2023-01-01T05:42:59;9.37;;;3.77;;
10823;SDS011;39116;59.332;18.034;2023-01-01T05:45:21;7.70;;;3.50;;
10823;SDS011;39116;59.332;18.034;2023-01-01T05:47:42;9.40;;;3.30;;
10823;SDS011;39116;59.332;18.034;2023-01-01T05:50:06;8.60;;;3.13;;
10823;SDS011;39116;59.332;18.034;2023-01-01T05:52:28;6.63;;;3.07;;
10823;SDS011;39116;59.332;18.034;2023-01-01T05:54:50;7.20;;;3.53;;
10823;SDS011;39116;59.332;18.034;2023-01-01T05:57:11;9.73;;;3.10;;
10823;SDS011;39116;59.332;18.034;2023-01-01T05:59:33;7.97;;;3.03;;
10823;SDS011;39116;59.332;18.034;2023-01-01T06:01:54;7.03;;;3.57;;
10823;SDS011;39116;59.332;18.034;2023-01-01T06:04:16;13.47;;;4.23;;
10823;SDS011;39116;59.332;18.034;2023-01-01T06:06:39;7.07;;;3.30;;
10823;SDS011;39116;59.332;18.034;2023-01-01T06:09:02;7.57;;;3.37;;
10823;SDS011;39116;59.332;18.034;2023-01-01T06:11:25;8.07;;;3.67;;
10823;SDS011;39116;59.332;18.034;2023-01-01T06:13:46;6.47;;;3.23;;
10823;SDS011;39116;59.332;18.034;2023-01-01T06:16:09;7.13;;;3.00;;
10823;SDS011;39116;59.332;18.034;2023-01-01T06:18:31;8.23;;;3.50;;
10823;SDS011;39116;59.332;18.034;2023-01-01T06:20:53;7.07;;;3.10;;
10823;SDS011;39116;59.332;18.034;2023-01-01T06:23:16;6.50;;;2.93;;
10823;SDS011;39116;59.332;18.034;2023-01-01T06:25:37;7.60;;;3.10;;
10823;SDS011;39116;59.332;18.034;2023-01-01T06:27:59;12.55;;;3.22;;
10823;SDS011;39116;59.332;18.034;2023-01-01T06:30:21;7.37;;;3.10;;
10823;SDS011;39116;59.332;18.034;2023-01-01T06:32:42;8.57;;;3.13;;
10823;SDS011;39116;59.332;18.034;2023-01-01T06:35:04;6.20;;;3.30;;
10823;SDS011;39116;59.332;18.034;2023-01-01T06:37:26;7.87;;;3.10;;
10823;SDS011;39116;59.332;18.034;2023-01-01T06:39:50;5.20;;;2.60;;
10823;SDS011;39116;59.332;18.034;2023-01-01T06:42:11;6.97;;;3.10;;
10823;SDS011;39116;59.332;18.034;2023-01-01T06:44:33;10.30;;;3.37;;
10823;SDS011;39116;59.332;18.034;2023-01-01T06:46:55;6.20;;;2.40;;
10823;SDS011;39116;59.332;18.034;2023-01-01T06:49:16;6.77;;;2.70;;
10823;SDS011;39116;59.332;18.034;2023-01-01T06:51:38;9.23;;;3.27;;
10823;SDS011;39116;59.332;18.034;2023-01-01T06:54:00;9.97;;;3.67;;
10823;SDS011;39116;59.332;18.034;2023-01-01T06:56:24;9.13;;;3.67;;
10823;SDS011;39116;59.332;18.034;2023-01-01T06:58:45;4.13;;;2.30;;
10823;SDS011;39116;59.332;18.034;2023-01-01T07:01:08;8.23;;;3.27;;
10823;SDS011;39116;59.332;18.034;2023-01-01T07:03:30;8.77;;;3.30;;
10823;SDS011;39116;59.332;18.034;2023-01-01T07:05:52;7.33;;;2.77;;
10823;SDS011;39116;59.332;18.034;2023-01-01T07:08:14;5.07;;;2.80;;
10823;SDS011;39116;59.332;18.034;2023-01-01T07:10:35;7.87;;;3.70;;
10823;SDS011;39116;59.332;18.034;2023-01-01T07:12:58;6.57;;;2.40;;
10823;SDS011;39116;59.332;18.034;2023-01-01T07:15:20;12.40;;;3.47;;
10823;SDS011;39116;59.332;18.034;2023-01-01T07:17:42;6.93;;;2.50;;
10823;SDS011;39116;59.332;18.034;2023-01-01T07:20:04;7.13;;;3.23;;
10823;SDS011;39116;59.332;18.034;2023-01-01T07:22:25;5.23;;;2.73;;
10823;SDS011;39116;59.332;18.034;2023-01-01T07:24:47;5.37;;;2.83;;
10823;SDS011;39116;59.332;18.034;2023-01-01T07:27:08;4.50;;;2.83;;
10823;SDS011;39116;59.332;18.034;2023-01-01T07:29:31;5.57;;;2.80;;
10823;SDS011;39116;59.332;18.034;2023-01-01T07:31:53;6.60;;;3.00;;
10823;SDS011;39116;59.332;18.034;2023-01-01T07:34:16;8.07;;;2.73;;
10823;SDS011;39116;59.332;18.034;2023-01-01T07:36:38;7.07;;;2.70;;
10823;SDS011;39116;59.332;18.034;2023-01-01T07:39:00;6.75;;;2.83;;
10823;SDS011;39116;59.332;18.034;2023-01-01T07:41:21;6.82;;;2.55;;
10823;SDS011;39116;59.332;18.034;2023-01-01T07:43:43;10.95;;;3.08;;
10823;SDS011;39116;59.332;18.034;2023-01-01T07:46:08;7.73;;;3.10;;
10823;SDS011;39116;59.332;18.034;2023-01-01T07:48:30;5.07;;;2.60;;
10823;SDS011;39116;59.332;18.034;2023-01-01T07:50:52;6.73;;;2.93;;
10823;SDS011;39116;59.332;18.034;2023-01-01T07:53:13;8.10;;;2.97;;
10823;SDS011;39116;59.332;18.034;2023-01-01T07:55:35;8.87;;;3.00;;
10823;SDS011;39116;59.332;18.034;2023-01-01T07:57:57;4.43;;;2.80;;
10823;SDS011;39116;59.332;18.034;2023-01-01T08:00:19;6.87;;;2.97;;
10823;SDS011;39116;59.332;18.034;2023-01-01T08:02:42;10.23;;;3.43;;
10823;SDS011;39116;59.332;18.034;2023-01-01T08:05:04;7.70;;;2.80;;
10823;SDS011;39116;59.332;18.034;2023-01-01T08:07:26;7.83;;;3.00;;
10823;SDS011;39116;59.332;18.034;2023-01-01T08:09:48;5.60;;;2.57;;
10823;SDS011;39116;59.332;18.034;2023-01-01T08:12:09;9.20;;;3.17;;
10823;SDS011;39116;59.332;18.034;2023-01-01T08:14:31;7.80;;;2.70;;
10823;SDS011;39116;59.332;18.034;2023-01-01T08:16:53;5.57;;;2.57;;
10823;SDS011;39116;59.332;18.034;2023-01-01T08:19:15;6.13;;;3.00;;
10823;SDS011;39116;59.332;18.034;2023-01-01T08:21:37;7.50;;;3.00;;
10823;SDS011;39116;59.332;18.034;2023-01-01T08:23:59;7.27;;;3.33;;
10823;SDS011;39116;59.332;18.034;2023-01-01T08:26:25;8.27;;;3.13;;
10823;SDS011;39116;59.332;18.034;2023-01-01T08:28:47;7.03;;;2.70;;
10823;SDS011;39116;59.332;18.034;2023-01-01T08:31:09;7.43;;;3.10;;
10823;SDS011;39116;59.332;18.034;2023-01-01T08:33:30;8.30;;;3.10;;
10823;SDS011;39116;59.332;18.034;2023-01-01T08:35:53;6.43;;;2.63;;
10823;SDS011;39116;59.332;18.034;2023-01-01T08:38:15;6.63;;;2.90;;
10823;SDS011;39116;59.332;18.034;2023-01-01T08:40:37;6.17;;;2.90;;
10823;SDS011;39116;59.332;18.034;2023-01-01T08:42:58;8.90;;;3.20;;
10823;SDS011;39116;59.332;18.034;2023-01-01T08:45:20;6.40;;;2.80;;
10823;SDS011;39116;59.332;18.034;2023-01-01T08:47:42;5.30;;;2.80;;
10823;SDS011;39116;59.332;18.034;2023-01-01T08:50:04;5.40;;;2.83;;
10823;SDS011;39116;59.332;18.034;2023-01-01T08:52:27;6.23;;;3.10;;
10823;SDS011;39116;59.332;18.034;2023-01-01T08:54:48;9.87;;;3.83;;
10823;SDS011;39116;59.332;18.034;2023-01-01T08:57:10;6.90;;;3.70;;
10823;SDS011;39116;59.332;18.034;2023-01-01T08:59:32;8.90;;;3.50;;
10823;SDS011;39116;59.332;18.034;2023-01-01T09:01:54;7.80;;;3.73;;
10823;SDS011;39116;59.332;18.034;2023-01-01T09:04:15;9.33;;;3.90;;
10823;SDS011;39116;59.332;18.034;2023-01-01T09:06:37;7.53;;;3.60;;
10823;SDS011;39116;59.332;18.034;2023-01-01T09:09:00;7.00;;;3.47;;
10823;SDS011;39116;59.332;18.034;2023-01-01T09:11:22;6.77;;;3.13;;
10823;SDS011;39116;59.332;18.034;2023-01-01T09:13:44;7.20;;;3.20;;
10823;SDS011;39116;59.332;18.034;2023-01-01T09:16:06;7.37;;;3.50;;
10823;SDS011;39116;59.332;18.034;2023-01-01T09:18:27;8.40;;;3.53;;
10823;SDS011;39116;59.332;18.034;2023-01-01T09:20:49;8.33;;;4.00;;
10823;SDS011;39116;59.332;18.034;2023-01-01T09:23:11;4.23;;;2.63;;
10823;SDS011;39116;59.332;18.034;2023-01-01T09:25:34;6.80;;;3.47;;
10823;SDS011;39116;59.332;18.034;2023-01-01T09:27:56;7.60;;;3.20;;
10823;SDS011;39116;59.332;18.034;2023-01-01T09:30:18;7.70;;;3.00;;
10823;SDS011;39116;59.332;18.034;2023-01-01T09:32:40;8.53;;;3.43;;
10823;SDS011;39116;59.332;18.034;2023-01-01T09:35:01;7.10;;;3.40;;
10823;SDS011;39116;59.332;18.034;2023-01-01T09:37:23;5.57;;;3.50;;
10823;SDS011;39116;59.332;18.034;2023-01-01T09:39:45;7.27;;;3.10;;
10823;SDS011;39116;59.332;18.034;2023-01-01T09:42:11;7.33;;;3.17;;
10823;SDS011;39116;59.332;18.034;2023-01-01T09:44:49;8.73;;;3.57;;
10823;SDS011;39116;59.332;18.034;2023-01-01T09:47:15;6.70;;;3.50;;
10823;SDS011;39116;59.332;18.034;2023-01-01T09:49:39;4.33;;;2.87;;
10823;SDS011;39116;59.332;18.034;2023-01-01T09:52:01;6.73;;;3.10;;
10823;SDS011;39116;59.332;18.034;2023-01-01T09:54:26;6.00;;;3.13;;
10823;SDS011;39116;59.332;18.034;2023-01-01T09:56:48;7.97;;;3.07;;
10823;SDS011;39116;59.332;18.034;2023-01-01T09:59:15;8.23;;;3.23;;
10823;SDS011;39116;59.332;18.034;2023-01-01T10:01:38;8.20;;;2.87;;
10823;SDS011;39116;59.332;18.034;2023-01-01T10:04:05;7.27;;;2.70;;
10823;SDS011;39116;59.332;18.034;2023-01-01T10:06:34;6.40;;;3.23;;
10823;SDS011;39116;59.332;18.034;2023-01-01T10:09:02;5.13;;;2.73;;
10823;SDS011;39116;59.332;18.034;2023-01-01T10:11:30;6.10;;;3.07;;
10823;SDS011;39116;59.332;18.034;2023-01-01T10:13:55;5.33;;;2.77;;
10823;SDS011;39116;59.332;18.034;2023-01-01T10:16:22;6.83;;;2.80;;
10823;SDS011;39116;59.332;18.034;2023-01-01T10:18:46;7.57;;;3.00;;
10823;SDS011;39116;59.332;18.034;2023-01-01T10:21:11;7.83;;;3.23;;
10823;SDS011;39116;59.332;18.034;2023-01-01T10:23:34;5.77;;;3.10;;
10823;SDS011;39116;59.332;18.034;2023-01-01T10:26:01;9.40;;;3.00;;
10823;SDS011;39116;59.332;18.034;2023-01-01T10:28:25;4.53;;;2.37;;
10823;SDS011;39116;59.332;18.034;2023-01-01T10:30:48;9.73;;;2.80;;
10823;SDS011;39116;59.332;18.034;2023-01-01T10:33:13;8.13;;;3.20;;
10823;SDS011;39116;59.332;18.034;2023-01-01T10:35:35;6.53;;;2.60;;
10823;SDS011;39116;59.332;18.034;2023-01-01T10:38:00;6.40;;;2.70;;
10823;SDS011;39116;59.332;18.034;2023-01-01T10:40:23;7.47;;;3.00;;
10823;SDS011;39116;59.332;18.034;2023-01-01T10:42:47;5.63;;;2.80;;
10823;SDS011;39116;59.332;18.034;2023-01-01T10:45:11;7.57;;;2.70;;
10823;SDS011;39116;59.332;18.034;2023-01-01T10:47:33;6.00;;;2.97;;
10823;SDS011;39116;59.332;18.034;2023-01-01T10:49:56;6.23;;;2.73;;
10823;SDS011;39116;59.332;18.034;2023-01-01T10:52:18;7.37;;;2.60;;
10823;SDS011;39116;59.332;18.034;2023-01-01T10:54:42;6.93;;;2.53;;
10823;SDS011;39116;59.332;18.034;2023-01-01T10:57:11;5.27;;;2.43;;
10823;SDS011;39116;59.332;18.034;2023-01-01T10:59:35;4.83;;;2.20;;
10823;SDS011;39116;59.332;18.034;2023-01-01T11:02:08;6.00;;;2.70;;
10823;SDS011;39116;59.332;18.034;2023-01-01T11:04:33;8.37;;;3.03;;
10823;SDS011;39116;59.332;18.034;2023-01-01T11:06:56;4.87;;;2.80;;
10823;SDS011;39116;59.332;18.034;2023-01-01T11:09:19;6.83;;;2.77;;
10823;SDS011;39116;59.332;18.034;2023-01-01T11:11:42;8.07;;;2.80;;
10823;SDS011;39116;59.332;18.034;2023-01-01T11:14:07;7.53;;;3.00;;
10823;SDS011;39116;59.332;18.034;2023-01-01T11:16:34;6.57;;;2.50;;
10823;SDS011;39116;59.332;18.034;2023-01-01T11:19:02;6.90;;;2.83;;
10823;SDS011;39116;59.332;18.034;2023-01-01T11:21:25;7.23;;;2.90;;
10823;SDS011;39116;59.332;18.034;2023-01-01T11:23:48;6.63;;;2.87;;
10823;SDS011;39116;59.332;18.034;2023-01-01T11:26:18;5.97;;;2.93;;
10823;SDS011;39116;59.332;18.034;2023-01-01T11:28:40;6.40;;;2.40;;
10823;SDS011;39116;59.332;18.034;2023-01-01T11:31:06;5.97;;;2.50;;
10823;SDS011;39116;59.332;18.034;2023-01-01T11:33:32;5.30;;;2.30;;
10823;SDS011;39116;59.332;18.034;2023-01-01T11:35:54;6.37;;;2.80;;
10823;SDS011;39116;59.332;18.034;2023-01-01T11:38:16;6.27;;;2.43;;
10823;SDS011;39116;59.332;18.034;2023-01-01T11:40:43;7.97;;;2.50;;
10823;SDS011;39116;59.332;18.034;2023-01-01T11:43:05;6.37;;;2.37;;
10823;SDS011;39116;59.332;18.034;2023-01-01T11:45:28;3.70;;;2.10;;
10823;SDS011;39116;59.332;18.034;2023-01-01T11:47:54;3.47;;;2.20;;
10823;SDS011;39116;59.332;18.034;2023-01-01T11:50:18;5.47;;;2.33;;
10823;SDS011;39116;59.332;18.034;2023-01-01T11:52:43;4.50;;;2.17;;
10823;SDS011;39116;59.332;18.034;2023-01-01T11:55:10;4.53;;;2.20;;
10823;SDS011;39116;59.332;18.034;2023-01-01T11:57:34;6.43;;;2.10;;
10823;SDS011;39116;59.332;18.034;2023-01-01T11:59:58;5.57;;;2.03;;
10823;SDS011;39116;59.332;18.034;2023-01-01T12:02:27;5.80;;;2.37;;
10823;SDS011;39116;59.332;18.034;2023-01-01T12:04:51;4.30;;;2.47;;
10823;SDS011;39116;59.332;18.034;2023-01-01T12:07:14;4.60;;;2.30;;
10823;SDS011;39116;59.332;18.034;2023-01-01T12:09:39;3.67;;;2.00;;
10823;SDS011;39116;59.332;18.034;2023-01-01T12:12:02;2.67;;;1.80;;
10823;SDS011;39116;59.332;18.034;2023-01-01T12:14:27;4.77;;;2.57;;
10823;SDS011;39116;59.332;18.034;2023-01-01T12:16:51;4.17;;;2.37;;
10823;SDS011;39116;59.332;18.034;2023-01-01T12:19:17;6.20;;;2.17;;
10823;SDS011;39116;59.332;18.034;2023-01-01T12:21:41;4.63;;;2.40;;
10823;SDS011;39116;59.332;18.034;2023-01-01T12:24:06;5.53;;;2.57;;
10823;SDS011;39116;59.332;18.034;2023-01-01T12:26:31;7.80;;;2.00;;
10823;SDS011;39116;59.332;18.034;2023-01-01T12:29:11;4.80;;;2.03;;
10823;SDS011;39116;59.332;18.034;2023-01-01T12:31:37;4.20;;;1.90;;
10823;SDS011;39116;59.332;18.034;2023-01-01T12:34:03;3.23;;;1.97;;
10823;SDS011;39116;59.332;18.034;2023-01-01T12:36:35;6.23;;;2.40;;
10823;SDS011;39116;59.332;18.034;2023-01-01T12:41:45;5.13;;;2.30;;
10823;SDS011;39116;59.332;18.034;2023-01-01T12:44:12;4.97;;;2.13;;
10823;SDS011;39116;59.332;18.034;2023-01-01T12:46:41;4.13;;;1.87;;
10823;SDS011;39116;59.332;18.034;2023-01-01T12:51:53;3.63;;;2.00;;
10823;SDS011;39116;59.332;18.034;2023-01-01T12:57:04;3.10;;;1.80;;
10823;SDS011;39116;59.332;18.034;2023-01-01T12:59:29;5.60;;;2.30;;
10823;SDS011;39116;59.332;18.034;2023-01-01T13:01:54;5.83;;;2.00;;
10823;SDS011;39116;59.332;18.034;2023-01-01T13:04:17;3.87;;;1.83;;
10823;SDS011;39116;59.332;18.034;2023-01-01T13:06:41;4.40;;;2.00;;
10823;SDS011;39116;59.332;18.034;2023-01-01T13:09:05;5.20;;;2.50;;
10823;SDS011;39116;59.332;18.034;2023-01-01T13:11:27;5.60;;;2.03;;
10823;SDS011;39116;59.332;18.034;2023-01-01T13:13:49;4.00;;;1.90;;
10823;SDS011;39116;59.332;18.034;2023-01-01T13:16:10;2.27;;;1.50;;
10823;SDS011;39116;59.332;18.034;2023-01-01T13:18:34;4.23;;;1.73;;
10823;SDS011;39116;59.332;18.034;2023-01-01T13:20:57;5.43;;;2.20;;
10823;SDS011;39116;59.332;18.034;2023-01-01T13:28:33;4.33;;;2.20;;
10823;SDS011;39116;59.332;18.034;2023-01-01T13:30:55;4.30;;;1.70;;
10823;SDS011;39116;59.332;18.034;2023-01-01T13:33:18;4.53;;;1.97;;
10823;SDS011;39116;59.332;18.034;2023-01-01T13:35:44;4.23;;;1.57;;
10823;SDS011;39116;59.332;18.034;2023-01-01T13:38:12;4.77;;;2.10;;
10823;SDS011;39116;59.332;18.034;2023-01-01T13:40:53;4.43;;;1.97;;
10823;SDS011;39116;59.332;18.034;2023-01-01T13:43:27;3.17;;;1.90;;
10823;SDS011;39116;59.332;18.034;2023-01-01T13:45:49;3.60;;;1.97;;
10823;SDS011;39116;59.332;18.034;2023-01-01T13:48:17;5.83;;;2.00;;
10823;SDS011;39116;59.332;18.034;2023-01-01T13:50:43;4.67;;;1.80;;
10823;SDS011;39116;59.332;18.034;2023-01-01T13:53:12;2.23;;;1.57;;
10823;SDS011;39116;59.332;18.034;2023-01-01T13:55:51;3.70;;;1.90;;
10823;SDS011;39116;59.332;18.034;2023-01-01T13:58:23;5.07;;;2.00;;
10823;SDS011;39116;59.332;18.034;2023-01-01T14:01:05;4.10;;;2.13;;
10823;SDS011;39116;59.332;18.034;2023-01-01T14:03:37;3.90;;;2.30;;
10823;SDS011;39116;59.332;18.034;2023-01-01T14:06:00;3.87;;;2.50;;
10823;SDS011;39116;59.332;18.034;2023-01-01T14:08:27;6.80;;;2.50;;
10823;SDS011;39116;59.332;18.034;2023-01-01T14:10:49;3.93;;;2.13;;
10823;SDS011;39116;59.332;18.034;2023-01-01T14:13:15;3.60;;;2.17;;
10823;SDS011;39116;59.332;18.034;2023-01-01T14:15:37;4.37;;;2.30;;
10823;SDS011;39116;59.332;18.034;2023-01-01T14:17:59;4.20;;;2.13;;
10823;SDS011;39116;59.332;18.034;2023-01-01T14:20:22;3.43;;;1.80;;
10823;SDS011;39116;59.332;18.034;2023-01-01T14:22:46;6.03;;;2.00;;
10823;SDS011;39116;59.332;18.034;2023-01-01T14:25:10;4.60;;;1.90;;
10823;SDS011;39116;59.332;18.034;2023-01-01T14:27:34;3.20;;;1.83;;